sensor_id;sensor_type;location;lat;lon;timestamp;temperature;humidity
56436;DHT22;42335;44.872;20.658;2023-06-04T06:05:58;512.10;2380.80
56436;DHT22;42335;44.872;20.658;2023-06-04T06:08:25;512.00;2380.80
56436;DHT22;42335;44.872;20.658;2023-06-04T06:10:51;512.10;2380.80
56436;DHT22;42335;44.872;20.658;2023-06-04T06:13:16;512.20;2380.80
56436;DHT22;42335;44.872;20.658;2023-06-04T06:15:42;512.40;2380.80
56436;DHT22;42335;44.872;20.658;2023-06-04T06:18:09;512.40;2380.80
56436;DHT22;42335;44.872;20.658;2023-06-04T07:36:16;563.80;2432.00
56436;DHT22;42335;44.872;20.658;2023-06-04T07:38:42;563.90;2432.00
56436;DHT22;42335;44.872;20.658;2023-06-04T07:41:08;563.80;2432.00
56436;DHT22;42335;44.872;20.658;2023-06-04T07:43:34;563.90;2432.00
56436;DHT22;42335;44.872;20.658;2023-06-04T07:46:05;564.00;2432.00
56436;DHT22;42335;44.872;20.658;2023-06-04T07:48:31;563.90;2432.00
56436;DHT22;42335;44.872;20.658;2023-06-04T07:51:01;564.00;2432.00
56436;DHT22;42335;44.872;20.658;2023-06-04T07:53:28;564.10;2432.00
56436;DHT22;42335;44.872;20.658;2023-06-04T07:55:54;564.10;2432.00
56436;DHT22;42335;44.872;20.658;2023-06-04T07:58:20;564.10;2432.00
56436;DHT22;42335;44.872;20.658;2023-06-04T08:00:46;564.10;2432.00
56436;DHT22;42335;44.872;20.658;2023-06-04T08:03:11;563.80;2432.00
56436;DHT22;42335;44.872;20.658;2023-06-04T08:05:37;564.00;2432.00
56436;DHT22;42335;44.872;20.658;2023-06-04T08:08:03;563.80;2432.00
56436;DHT22;42335;44.872;20.658;2023-06-04T08:10:29;564.00;2432.00
56436;DHT22;42335;44.872;20.658;2023-06-04T08:12:55;564.00;2432.00
56436;DHT22;42335;44.872;20.658;2023-06-04T08:15:21;564.10;2432.00
56436;DHT22;42335;44.872;20.658;2023-06-04T08:17:47;589.00;2432.00
56436;DHT22;42335;44.872;20.658;2023-06-04T08:20:13;588.80;2432.00
56436;DHT22;42335;44.872;20.658;2023-06-04T08:22:39;588.90;2432.00
56436;DHT22;42335;44.872;20.658;2023-06-04T09:09:29;614.70;2355.20
56436;DHT22;42335;44.872;20.658;2023-06-04T09:11:56;614.60;2355.20
56436;DHT22;42335;44.872;20.658;2023-06-04T09:14:23;614.60;2329.60
56436;DHT22;42335;44.872;20.658;2023-06-04T09:16:53;614.80;2278.40
56436;DHT22;42335;44.872;20.658;2023-06-04T09:19:20;614.70;2278.40
56436;DHT22;42335;44.872;20.658;2023-06-04T09:21:52;614.60;2304.00
56436;DHT22;42335;44.872;20.658;2023-06-04T09:24:19;614.80;2278.40
56436;DHT22;42335;44.872;20.658;2023-06-04T09:27:13;614.80;2227.20
56436;DHT22;42335;44.872;20.658;2023-06-04T09:29:48;614.90;2227.20
56436;DHT22;42335;44.872;20.658;2023-06-04T09:32:29;614.80;2201.60
56436;DHT22;42335;44.872;20.658;2023-06-04T09:35:08;614.60;2201.60
56436;DHT22;42335;44.872;20.658;2023-06-04T09:37:50;614.70;2252.80
56436;DHT22;42335;44.872;20.658;2023-06-04T09:40:16;614.80;2201.60
56436;DHT22;42335;44.872;20.658;2023-06-04T09:42:44;614.60;2176.00
56436;DHT22;42335;44.872;20.658;2023-06-04T09:45:10;614.50;2201.60
56436;DHT22;42335;44.872;20.658;2023-06-04T09:47:41;614.70;2176.00
56436;DHT22;42335;44.872;20.658;2023-06-04T09:50:08;614.80;2124.80
56436;DHT22;42335;44.872;20.658;2023-06-04T09:52:34;614.80;2150.40
56436;DHT22;42335;44.872;20.658;2023-06-04T09:55:00;615.10;2099.20
56436;DHT22;42335;44.872;20.658;2023-06-04T09:57:28;615.10;2124.80
56436;DHT22;42335;44.872;20.658;2023-06-04T09:59:55;614.80;2124.80
56436;DHT22;42335;44.872;20.658;2023-06-04T10:02:22;615.10;2124.80
56436;DHT22;42335;44.872;20.658;2023-06-04T10:04:55;615.10;2099.20
56436;DHT22;42335;44.872;20.658;2023-06-04T10:07:25;615.20;2048.00
56436;DHT22;42335;44.872;20.658;2023-06-04T10:09:55;615.20;2099.20
56436;DHT22;42335;44.872;20.658;2023-06-04T10:12:27;615.10;2073.60
56436;DHT22;42335;44.872;20.658;2023-06-04T10:15:05;615.10;2073.60
56436;DHT22;42335;44.872;20.658;2023-06-04T10:17:33;615.30;2048.00
56436;DHT22;42335;44.872;20.658;2023-06-04T10:20:03;615.20;2022.40
56436;DHT22;42335;44.872;20.658;2023-06-04T10:22:34;615.00;2073.60
56436;DHT22;42335;44.872;20.658;2023-06-04T10:25:01;615.10;2073.60
56436;DHT22;42335;44.872;20.658;2023-06-04T10:27:30;615.20;2048.00
56436;DHT22;42335;44.872;20.658;2023-06-04T10:29:56;615.00;2048.00
56436;DHT22;42335;44.872;20.658;2023-06-04T10:32:22;615.20;1996.80
56436;DHT22;42335;44.872;20.658;2023-06-04T10:34:48;640.20;2022.40
56436;DHT22;42335;44.872;20.658;2023-06-04T10:37:26;640.10;2048.00
56436;DHT22;42335;44.872;20.658;2023-06-04T10:39:56;615.30;2022.40
56436;DHT22;42335;44.872;20.658;2023-06-04T10:42:23;615.30;2022.40
56436;DHT22;42335;44.872;20.658;2023-06-04T10:44:51;615.30;2022.40
56436;DHT22;42335;44.872;20.658;2023-06-04T10:47:27;640.00;2048.00
56436;DHT22;42335;44.872;20.658;2023-06-04T10:55:05;640.20;2048.00
56436;DHT22;42335;44.872;20.658;2023-06-04T10:57:32;640.00;1996.80
56436;DHT22;42335;44.872;20.658;2023-06-04T10:59:59;615.10;2022.40
56436;DHT22;42335;44.872;20.658;2023-06-04T11:02:25;615.10;2048.00
56436;DHT22;42335;44.872;20.658;2023-06-04T11:05:02;615.30;2073.60
56436;DHT22;42335;44.872;20.658;2023-06-04T11:07:51;640.40;2022.40
56436;DHT22;42335;44.872;20.658;2023-06-04T11:10:17;640.10;2022.40
56436;DHT22;42335;44.872;20.658;2023-06-04T11:17:55;640.90;1920.00
56436;DHT22;42335;44.872;20.658;2023-06-04T11:20:24;640.90;1920.00
56436;DHT22;42335;44.872;20.658;2023-06-04T11:22:54;640.50;1945.60
56436;DHT22;42335;44.872;20.658;2023-06-04T11:25:21;640.40;1945.60
56436;DHT22;42335;44.872;20.658;2023-06-04T11:27:48;640.70;1945.60
56436;DHT22;42335;44.872;20.658;2023-06-04T11:30:15;640.60;1920.00
56436;DHT22;42335;44.872;20.658;2023-06-04T11:32:41;640.70;1920.00
56436;DHT22;42335;44.872;20.658;2023-06-04T11:35:07;640.70;1945.60
56436;DHT22;42335;44.872;20.658;2023-06-04T11:37:33;640.70;1945.60
56436;DHT22;42335;44.872;20.658;2023-06-04T11:40:00;640.80;1920.00
56436;DHT22;42335;44.872;20.658;2023-06-04T11:42:29;640.80;1920.00
56436;DHT22;42335;44.872;20.658;2023-06-04T11:52:14;665.70;1945.60
56436;DHT22;42335;44.872;20.658;2023-06-04T11:54:39;665.60;1920.00
56436;DHT22;42335;44.872;20.658;2023-06-04T11:57:06;665.70;1894.40
56436;DHT22;42335;44.872;20.658;2023-06-04T11:59:32;665.60;1920.00
56436;DHT22;42335;44.872;20.658;2023-06-04T12:41:52;640.70;1843.20
56436;DHT22;42335;44.872;20.658;2023-06-04T12:44:17;640.30;1945.60
56436;DHT22;42335;44.872;20.658;2023-06-04T12:46:43;640.60;1894.40
56436;DHT22;42335;44.872;20.658;2023-06-04T12:49:09;640.20;1894.40
56436;DHT22;42335;44.872;20.658;2023-06-04T12:51:34;640.20;1920.00
56436;DHT22;42335;44.872;20.658;2023-06-04T12:54:01;640.40;1894.40
56436;DHT22;42335;44.872;20.658;2023-06-04T12:56:27;640.50;1894.40
56436;DHT22;42335;44.872;20.658;2023-06-04T12:58:53;640.90;1868.80
56436;DHT22;42335;44.872;20.658;2023-06-04T13:01:18;640.60;1868.80
56436;DHT22;42335;44.872;20.658;2023-06-04T13:03:44;640.80;1868.80
56436;DHT22;42335;44.872;20.658;2023-06-04T13:06:10;640.90;1868.80
56436;DHT22;42335;44.872;20.658;2023-06-04T13:08:36;665.70;1868.80
56436;DHT22;42335;44.872;20.658;2023-06-04T13:11:02;665.70;1868.80
56436;DHT22;42335;44.872;20.658;2023-06-04T13:13:28;665.90;1868.80
56436;DHT22;42335;44.872;20.658;2023-06-04T13:15:55;640.90;1868.80
56436;DHT22;42335;44.872;20.658;2023-06-04T13:18:21;640.90;1868.80
56436;DHT22;42335;44.872;20.658;2023-06-04T13:20:47;640.90;1894.40
56436;DHT22;42335;44.872;20.658;2023-06-04T13:23:14;665.70;1843.20
56436;DHT22;42335;44.872;20.658;2023-06-04T13:25:40;665.60;1868.80
56436;DHT22;42335;44.872;20.658;2023-06-04T13:28:06;640.70;1894.40
56436;DHT22;42335;44.872;20.658;2023-06-04T13:30:36;640.70;1894.40
56436;DHT22;42335;44.872;20.658;2023-06-04T13:33:05;640.70;1843.20
56436;DHT22;42335;44.872;20.658;2023-06-04T13:35:31;640.40;1894.40
56436;DHT22;42335;44.872;20.658;2023-06-04T13:37:58;640.60;1868.80
56436;DHT22;42335;44.872;20.658;2023-06-04T13:40:24;640.70;1843.20
56436;DHT22;42335;44.872;20.658;2023-06-04T13:42:50;640.10;1894.40
56436;DHT22;42335;44.872;20.658;2023-06-04T13:45:15;640.20;1868.80
56436;DHT22;42335;44.872;20.658;2023-06-04T13:47:42;640.20;1894.40
56436;DHT22;42335;44.872;20.658;2023-06-04T13:50:08;640.00;1894.40
56436;DHT22;42335;44.872;20.658;2023-06-04T13:52:34;615.30;1894.40
56436;DHT22;42335;44.872;20.658;2023-06-04T13:57:27;615.10;1920.00
56436;DHT22;42335;44.872;20.658;2023-06-04T13:59:53;615.20;1920.00
56436;DHT22;42335;44.872;20.658;2023-06-04T14:02:19;615.30;1920.00
56436;DHT22;42335;44.872;20.658;2023-06-04T14:04:45;640.00;1920.00
56436;DHT22;42335;44.872;20.658;2023-06-04T14:07:11;615.30;1920.00
56436;DHT22;42335;44.872;20.658;2023-06-04T14:09:36;615.20;1945.60
56436;DHT22;42335;44.872;20.658;2023-06-04T14:12:03;640.00;1945.60
56436;DHT22;42335;44.872;20.658;2023-06-04T14:14:29;640.20;1945.60
56436;DHT22;42335;44.872;20.658;2023-06-04T14:17:02;640.00;1945.60
56436;DHT22;42335;44.872;20.658;2023-06-04T14:19:28;640.00;1920.00
56436;DHT22;42335;44.872;20.658;2023-06-04T14:21:54;640.00;1920.00
56436;DHT22;42335;44.872;20.658;2023-06-04T14:24:20;615.30;1945.60
56436;DHT22;42335;44.872;20.658;2023-06-04T14:26:46;615.00;1971.20
56436;DHT22;42335;44.872;20.658;2023-06-04T14:29:11;615.00;1996.80
56436;DHT22;42335;44.872;20.658;2023-06-04T14:31:38;615.30;1945.60
56436;DHT22;42335;44.872;20.658;2023-06-04T14:34:07;615.10;1971.20
56436;DHT22;42335;44.872;20.658;2023-06-04T14:36:34;615.00;1971.20
56436;DHT22;42335;44.872;20.658;2023-06-04T14:39:00;614.60;2022.40
56436;DHT22;42335;44.872;20.658;2023-06-04T14:41:25;614.70;2022.40
56436;DHT22;42335;44.872;20.658;2023-06-04T14:43:52;614.60;2048.00
56436;DHT22;42335;44.872;20.658;2023-06-04T14:46:18;614.40;2022.40
56436;DHT22;42335;44.872;20.658;2023-06-04T14:48:44;614.50;2022.40
56436;DHT22;42335;44.872;20.658;2023-06-04T14:51:09;614.70;2022.40
56436;DHT22;42335;44.872;20.658;2023-06-04T14:53:35;614.70;2022.40
56436;DHT22;42335;44.872;20.658;2023-06-04T14:56:07;614.70;2022.40
56436;DHT22;42335;44.872;20.658;2023-06-04T14:58:33;614.60;2022.40
56436;DHT22;42335;44.872;20.658;2023-06-04T15:01:00;614.50;2022.40
56436;DHT22;42335;44.872;20.658;2023-06-04T15:03:29;614.40;2048.00
56436;DHT22;42335;44.872;20.658;2023-06-04T15:10:47;614.60;2048.00
56436;DHT22;42335;44.872;20.658;2023-06-04T15:13:12;614.40;2073.60
56436;DHT22;42335;44.872;20.658;2023-06-04T15:15:38;589.40;2124.80
56436;DHT22;42335;44.872;20.658;2023-06-04T15:18:04;589.50;2099.20
56436;DHT22;42335;44.872;20.658;2023-06-04T15:20:32;589.30;2124.80
56436;DHT22;42335;44.872;20.658;2023-06-04T15:22:58;589.50;2124.80
56436;DHT22;42335;44.872;20.658;2023-06-04T15:25:23;589.20;2124.80
56436;DHT22;42335;44.872;20.658;2023-06-04T15:27:49;589.50;2124.80
56436;DHT22;42335;44.872;20.658;2023-06-04T15:30:15;589.30;2124.80
56436;DHT22;42335;44.872;20.658;2023-06-04T15:32:42;589.30;2124.80
56436;DHT22;42335;44.872;20.658;2023-06-04T15:42:28;589.40;2150.40
56436;DHT22;42335;44.872;20.658;2023-06-04T15:44:54;589.00;2176.00
56436;DHT22;42335;44.872;20.658;2023-06-04T16:11:41;588.80;2252.80
56436;DHT22;42335;44.872;20.658;2023-06-04T16:14:06;588.90;2252.80
56436;DHT22;42335;44.872;20.658;2023-06-04T17:54:13;512.40;2380.80
56436;DHT22;42335;44.872;20.658;2023-06-04T17:56:39;512.00;2380.80
56436;DHT22;42335;44.872;20.658;2023-06-04T18:30:51;486.80;2380.80
56436;DHT22;42335;44.872;20.658;2023-06-04T18:33:22;486.70;2380.80
56436;DHT22;42335;44.872;20.658;2023-06-04T18:35:49;486.50;2380.80
56436;DHT22;42335;44.872;20.658;2023-06-04T18:38:15;486.60;2380.80
56436;DHT22;42335;44.872;20.658;2023-06-04T18:40:41;486.80;2380.80
